sensor_id;sensor_type;location;lat;lon;timestamp;pressure;altitude;pressure_sealevel;temperature;humidity
19672;BME280;9983;51.114;13.788;2023-04-02T00:01:03;98499.09;;;10.05;100.00
19672;BME280;9983;51.114;13.788;2023-04-02T00:11:37;98524.41;;;9.74;100.00
19672;BME280;9983;51.114;13.788;2023-04-02T00:16:38;98535.47;;;9.71;100.00
19672;BME280;9983;51.114;13.788;2023-04-02T00:21:40;98543.28;;;9.66;100.00
19672;BME280;9983;51.114;13.788;2023-04-02T00:26:52;98552.44;;;9.57;100.00
19672;BME280;9983;51.114;13.788;2023-04-02T00:31:53;98561.47;;;9.35;100.00
19672;BME280;9983;51.114;13.788;2023-04-02T00:36:54;98559.47;;;9.22;100.00
19672;BME280;9983;51.114;13.788;2023-04-02T00:41:57;98567.47;;;9.37;100.00
19672;BME280;9983;51.114;13.788;2023-04-02T00:47:11;98575.69;;;9.21;100.00
19672;BME280;9983;51.114;13.788;2023-04-02T00:52:16;98582.34;;;9.25;100.00
19672;BME280;9983;51.114;13.788;2023-04-02T00:57:20;98591.66;;;9.29;100.00
19672;BME280;9983;51.114;13.788;2023-04-02T01:02:31;98596.13;;;9.43;100.00
19672;BME280;9983;51.114;13.788;2023-04-02T01:12:49;98614.47;;;8.66;100.00
19672;BME280;9983;51.114;13.788;2023-04-02T01:18:19;98616.56;;;8.56;100.00
19672;BME280;9983;51.114;13.788;2023-04-02T01:23:36;98621.91;;;8.56;100.00
19672;BME280;9983;51.114;13.788;2023-04-02T01:28:59;98637.81;;;8.34;100.00
19672;BME280;9983;51.114;13.788;2023-04-02T01:34:03;98650.19;;;8.35;100.00
19672;BME280;9983;51.114;13.788;2023-04-02T01:39:18;98657.63;;;8.17;100.00
19672;BME280;9983;51.114;13.788;2023-04-02T01:44:28;98668.91;;;8.50;100.00
19672;BME280;9983;51.114;13.788;2023-04-02T01:49:30;98683.34;;;8.41;100.00
19672;BME280;9983;51.114;13.788;2023-04-02T01:54:31;98708.06;;;8.12;100.00
19672;BME280;9983;51.114;13.788;2023-04-02T01:59:31;98692.47;;;8.01;100.00
19672;BME280;9983;51.114;13.788;2023-04-02T02:04:32;98706.97;;;7.76;100.00
19672;BME280;9983;51.114;13.788;2023-04-02T02:09:34;98715.69;;;7.61;100.00
19672;BME280;9983;51.114;13.788;2023-04-02T02:14:35;98721.66;;;7.72;100.00
19672;BME280;9983;51.114;13.788;2023-04-02T02:19:37;98734.13;;;7.79;100.00
19672;BME280;9983;51.114;13.788;2023-04-02T02:24:39;98739.53;;;7.24;100.00
19672;BME280;9983;51.114;13.788;2023-04-02T02:29:40;98745.69;;;7.24;100.00
19672;BME280;9983;51.114;13.788;2023-04-02T02:34:46;98745.44;;;7.50;100.00
19672;BME280;9983;51.114;13.788;2023-04-02T02:39:52;98768.53;;;7.19;100.00
19672;BME280;9983;51.114;13.788;2023-04-02T02:44:55;98772.03;;;7.67;100.00
19672;BME280;9983;51.114;13.788;2023-04-02T02:49:59;98783.41;;;7.60;100.00
19672;BME280;9983;51.114;13.788;2023-04-02T02:55:05;98788.81;;;7.28;100.00
19672;BME280;9983;51.114;13.788;2023-04-02T03:00:08;98795.78;;;7.45;100.00
19672;BME280;9983;51.114;13.788;2023-04-02T03:05:20;98807.81;;;7.33;100.00
19672;BME280;9983;51.114;13.788;2023-04-02T03:10:35;98823.44;;;7.52;100.00
19672;BME280;9983;51.114;13.788;2023-04-02T03:21:26;98849.84;;;7.07;100.00
19672;BME280;9983;51.114;13.788;2023-04-02T03:26:39;98862.19;;;7.08;100.00
19672;BME280;9983;51.114;13.788;2023-04-02T03:31:46;98873.50;;;7.18;100.00
19672;BME280;9983;51.114;13.788;2023-04-02T03:36:59;98877.50;;;7.14;100.00
19672;BME280;9983;51.114;13.788;2023-04-02T03:42:27;98885.47;;;7.22;100.00
19672;BME280;9983;51.114;13.788;2023-04-02T03:52:50;98912.81;;;7.24;100.00
19672;BME280;9983;51.114;13.788;2023-04-02T03:58:01;98914.13;;;7.04;100.00
19672;BME280;9983;51.114;13.788;2023-04-02T04:03:10;98930.47;;;7.01;100.00
19672;BME280;9983;51.114;13.788;2023-04-02T04:08:17;98942.44;;;6.89;100.00
19672;BME280;9983;51.114;13.788;2023-04-02T04:13:45;98963.78;;;7.13;100.00
19672;BME280;9983;51.114;13.788;2023-04-02T04:18:54;98974.75;;;6.85;100.00
19672;BME280;9983;51.114;13.788;2023-04-02T04:24:15;98986.88;;;6.80;100.00
19672;BME280;9983;51.114;13.788;2023-04-02T04:29:38;98994.66;;;6.65;100.00
19672;BME280;9983;51.114;13.788;2023-04-02T04:34:47;99007.84;;;6.67;100.00
19672;BME280;9983;51.114;13.788;2023-04-02T04:40:08;99022.00;;;6.67;100.00
19672;BME280;9983;51.114;13.788;2023-04-02T04:56:00;99066.44;;;6.33;100.00
19672;BME280;9983;51.114;13.788;2023-04-02T05:06:58;99087.69;;;6.25;100.00
19672;BME280;9983;51.114;13.788;2023-04-02T05:12:33;99098.06;;;6.36;100.00
19672;BME280;9983;51.114;13.788;2023-04-02T05:23:26;99117.38;;;5.59;100.00
19672;BME280;9983;51.114;13.788;2023-04-02T05:33:47;99150.19;;;6.21;100.00
19672;BME280;9983;51.114;13.788;2023-04-02T05:38:49;99157.19;;;6.22;100.00
19672;BME280;9983;51.114;13.788;2023-04-02T05:43:55;99170.91;;;5.91;100.00
19672;BME280;9983;51.114;13.788;2023-04-02T05:48:58;99172.41;;;6.12;100.00
19672;BME280;9983;51.114;13.788;2023-04-02T05:54:00;99191.88;;;5.94;100.00
19672;BME280;9983;51.114;13.788;2023-04-02T05:59:23;99199.22;;;5.65;100.00
19672;BME280;9983;51.114;13.788;2023-04-02T06:04:33;99203.94;;;5.71;100.00
19672;BME280;9983;51.114;13.788;2023-04-02T06:09:43;99202.69;;;6.11;100.00
19672;BME280;9983;51.114;13.788;2023-04-02T06:14:44;99225.34;;;5.69;100.00
19672;BME280;9983;51.114;13.788;2023-04-02T06:19:46;99236.34;;;5.57;100.00
19672;BME280;9983;51.114;13.788;2023-04-02T06:24:50;99247.22;;;5.91;100.00
19672;BME280;9983;51.114;13.788;2023-04-02T06:29:58;99250.34;;;6.04;100.00
19672;BME280;9983;51.114;13.788;2023-04-02T06:35:01;99263.44;;;5.97;100.00
19672;BME280;9983;51.114;13.788;2023-04-02T06:40:03;99273.88;;;5.54;100.00
19672;BME280;9983;51.114;13.788;2023-04-02T06:45:05;99286.75;;;5.58;100.00
19672;BME280;9983;51.114;13.788;2023-04-02T06:50:16;99298.03;;;5.97;100.00
19672;BME280;9983;51.114;13.788;2023-04-02T07:00:56;99318.66;;;5.58;100.00
19672;BME280;9983;51.114;13.788;2023-04-02T07:05:58;99330.34;;;5.75;100.00
19672;BME280;9983;51.114;13.788;2023-04-02T07:10:59;99342.13;;;5.63;100.00
19672;BME280;9983;51.114;13.788;2023-04-02T07:15:59;99341.81;;;5.76;100.00
19672;BME280;9983;51.114;13.788;2023-04-02T07:21:00;99359.25;;;5.88;100.00
19672;BME280;9983;51.114;13.788;2023-04-02T07:26:00;99365.69;;;5.58;100.00
19672;BME280;9983;51.114;13.788;2023-04-02T07:31:01;99368.88;;;5.98;100.00
19672;BME280;9983;51.114;13.788;2023-04-02T07:36:01;99367.81;;;5.91;100.00
19672;BME280;9983;51.114;13.788;2023-04-02T07:41:05;99383.44;;;5.94;100.00
19672;BME280;9983;51.114;13.788;2023-04-02T07:46:07;99394.78;;;5.96;100.00
19672;BME280;9983;51.114;13.788;2023-04-02T07:51:24;99403.09;;;5.93;100.00
19672;BME280;9983;51.114;13.788;2023-04-02T07:56:25;99408.66;;;6.27;100.00
19672;BME280;9983;51.114;13.788;2023-04-02T08:01:27;99412.25;;;6.08;100.00
19672;BME280;9983;51.114;13.788;2023-04-02T08:06:29;99430.78;;;6.00;100.00
19672;BME280;9983;51.114;13.788;2023-04-02T08:11:29;99444.25;;;5.80;100.00
19672;BME280;9983;51.114;13.788;2023-04-02T08:16:50;99445.09;;;5.80;100.00
19672;BME280;9983;51.114;13.788;2023-04-02T08:21:51;99464.16;;;5.85;100.00
19672;BME280;9983;51.114;13.788;2023-04-02T08:26:53;99478.38;;;6.03;100.00
19672;BME280;9983;51.114;13.788;2023-04-02T08:31:53;99481.66;;;5.78;100.00
19672;BME280;9983;51.114;13.788;2023-04-02T08:36:57;99483.75;;;5.84;100.00
19672;BME280;9983;51.114;13.788;2023-04-02T08:42:04;99497.19;;;5.92;100.00
19672;BME280;9983;51.114;13.788;2023-04-02T08:47:07;99509.53;;;5.93;100.00
19672;BME280;9983;51.114;13.788;2023-04-02T08:52:22;99510.66;;;5.62;100.00
19672;BME280;9983;51.114;13.788;2023-04-02T08:57:34;99520.44;;;5.71;100.00
19672;BME280;9983;51.114;13.788;2023-04-02T09:02:39;99529.34;;;6.18;100.00
19672;BME280;9983;51.114;13.788;2023-04-02T09:07:40;99529.13;;;5.92;100.00
19672;BME280;9983;51.114;13.788;2023-04-02T09:12:42;99538.63;;;5.95;100.00
19672;BME280;9983;51.114;13.788;2023-04-02T09:17:45;99544.25;;;5.92;100.00
19672;BME280;9983;51.114;13.788;2023-04-02T09:22:46;99556.25;;;5.86;100.00
19672;BME280;9983;51.114;13.788;2023-04-02T09:27:51;99561.72;;;6.04;100.00
19672;BME280;9983;51.114;13.788;2023-04-02T09:32:54;99585.19;;;6.28;100.00
19672;BME280;9983;51.114;13.788;2023-04-02T09:43:12;99605.00;;;5.96;100.00
19672;BME280;9983;51.114;13.788;2023-04-02T09:48:34;99604.44;;;5.73;100.00
19672;BME280;9983;51.114;13.788;2023-04-02T09:53:40;99613.69;;;5.98;100.00
19672;BME280;9983;51.114;13.788;2023-04-02T09:58:43;99625.13;;;6.28;100.00
19672;BME280;9983;51.114;13.788;2023-04-02T10:03:43;99626.56;;;6.13;100.00
19672;BME280;9983;51.114;13.788;2023-04-02T10:08:44;99644.47;;;6.20;100.00
19672;BME280;9983;51.114;13.788;2023-04-02T10:14:36;99638.00;;;6.42;100.00
19672;BME280;9983;51.114;13.788;2023-04-02T10:19:42;99648.47;;;6.53;100.00
19672;BME280;9983;51.114;13.788;2023-04-02T10:24:45;99659.34;;;6.23;100.00
19672;BME280;9983;51.114;13.788;2023-04-02T10:46:16;99684.56;;;6.84;100.00
19672;BME280;9983;51.114;13.788;2023-04-02T10:51:43;99700.75;;;6.54;100.00
19672;BME280;9983;51.114;13.788;2023-04-02T10:56:45;99707.59;;;6.66;99.72
19672;BME280;9983;51.114;13.788;2023-04-02T11:01:47;99706.78;;;6.46;100.00
19672;BME280;9983;51.114;13.788;2023-04-02T11:07:01;99709.56;;;7.11;99.79
19672;BME280;9983;51.114;13.788;2023-04-02T11:12:06;99719.97;;;6.95;100.00
19672;BME280;9983;51.114;13.788;2023-04-02T11:17:12;99721.38;;;6.99;100.00
19672;BME280;9983;51.114;13.788;2023-04-02T11:22:19;99733.81;;;6.61;98.53
19672;BME280;9983;51.114;13.788;2023-04-02T11:27:28;99738.69;;;7.22;99.13
19672;BME280;9983;51.114;13.788;2023-04-02T11:32:33;99744.63;;;7.16;100.00
19672;BME280;9983;51.114;13.788;2023-04-02T11:37:39;99751.03;;;7.23;97.34
19672;BME280;9983;51.114;13.788;2023-04-02T11:42:47;99767.19;;;6.75;98.71
19672;BME280;9983;51.114;13.788;2023-04-02T11:58:31;99775.41;;;7.28;93.52
19672;BME280;9983;51.114;13.788;2023-04-02T12:03:52;99774.16;;;7.32;91.94
19672;BME280;9983;51.114;13.788;2023-04-02T12:09:12;99778.31;;;7.72;91.02
19672;BME280;9983;51.114;13.788;2023-04-02T12:19:34;99788.66;;;7.84;85.57
19672;BME280;9983;51.114;13.788;2023-04-02T12:24:34;99791.06;;;7.95;85.42
19672;BME280;9983;51.114;13.788;2023-04-02T12:29:34;99802.38;;;8.34;84.28
19672;BME280;9983;51.114;13.788;2023-04-02T12:34:44;99804.34;;;8.68;79.11
19672;BME280;9983;51.114;13.788;2023-04-02T12:39:51;99811.47;;;8.14;80.67
19672;BME280;9983;51.114;13.788;2023-04-02T12:44:52;99818.78;;;8.12;80.64
19672;BME280;9983;51.114;13.788;2023-04-02T12:49:55;99820.38;;;8.32;79.10
19672;BME280;9983;51.114;13.788;2023-04-02T12:55:00;99826.16;;;8.81;77.39
19672;BME280;9983;51.114;13.788;2023-04-02T13:05:46;99841.53;;;8.44;79.09
19672;BME280;9983;51.114;13.788;2023-04-02T13:10:53;99846.63;;;8.55;78.21
19672;BME280;9983;51.114;13.788;2023-04-02T13:16:25;99858.19;;;7.83;77.91
19672;BME280;9983;51.114;13.788;2023-04-02T13:21:26;99864.69;;;7.34;79.85
19672;BME280;9983;51.114;13.788;2023-04-02T13:26:28;99867.00;;;7.56;82.01
19672;BME280;9983;51.114;13.788;2023-04-02T13:31:29;99871.03;;;7.97;80.22
19672;BME280;9983;51.114;13.788;2023-04-02T13:36:30;99880.72;;;7.98;77.83
19672;BME280;9983;51.114;13.788;2023-04-02T13:41:35;99891.56;;;7.59;77.60
19672;BME280;9983;51.114;13.788;2023-04-02T13:46:36;99895.22;;;7.58;81.08
19672;BME280;9983;51.114;13.788;2023-04-02T13:51:40;99898.50;;;7.80;78.93
19672;BME280;9983;51.114;13.788;2023-04-02T13:56:40;99905.94;;;8.13;77.60
19672;BME280;9983;51.114;13.788;2023-04-02T14:01:43;99907.13;;;8.01;78.22
19672;BME280;9983;51.114;13.788;2023-04-02T14:11:52;99928.06;;;7.69;77.82
19672;BME280;9983;51.114;13.788;2023-04-02T14:43:29;99956.03;;;7.45;77.19
19672;BME280;9983;51.114;13.788;2023-04-02T14:48:39;99958.19;;;7.32;77.39
19672;BME280;9983;51.114;13.788;2023-04-02T14:53:53;99964.47;;;7.50;76.56
19672;BME280;9983;51.114;13.788;2023-04-02T14:59:18;99965.47;;;7.49;77.06
19672;BME280;9983;51.114;13.788;2023-04-02T15:04:26;99968.31;;;7.19;78.41
19672;BME280;9983;51.114;13.788;2023-04-02T15:09:36;99962.94;;;7.38;76.89
19672;BME280;9983;51.114;13.788;2023-04-02T15:14:44;99955.28;;;7.72;77.04
19672;BME280;9983;51.114;13.788;2023-04-02T15:19:46;99967.06;;;7.79;74.36
19672;BME280;9983;51.114;13.788;2023-04-02T15:25:13;99967.97;;;7.60;77.01
19672;BME280;9983;51.114;13.788;2023-04-02T15:30:25;99973.47;;;7.96;75.16
19672;BME280;9983;51.114;13.788;2023-04-02T15:35:41;99984.16;;;7.96;75.15
19672;BME280;9983;51.114;13.788;2023-04-02T15:57:14;100007.53;;;7.84;72.66
19672;BME280;9983;51.114;13.788;2023-04-02T16:07:59;100020.31;;;7.81;74.23
19672;BME280;9983;51.114;13.788;2023-04-02T16:13:13;100023.59;;;7.55;77.16
19672;BME280;9983;51.114;13.788;2023-04-02T16:18:32;100035.50;;;7.71;74.14
19672;BME280;9983;51.114;13.788;2023-04-02T16:23:40;100045.44;;;7.88;73.91
19672;BME280;9983;51.114;13.788;2023-04-02T16:34:29;100045.75;;;7.85;74.33
19672;BME280;9983;51.114;13.788;2023-04-02T16:39:49;100056.16;;;7.69;75.85
19672;BME280;9983;51.114;13.788;2023-04-02T16:45:07;100053.91;;;7.74;74.32
19672;BME280;9983;51.114;13.788;2023-04-02T16:56:03;100069.06;;;7.83;73.22
19672;BME280;9983;51.114;13.788;2023-04-02T17:01:13;100073.28;;;7.76;74.50
19672;BME280;9983;51.114;13.788;2023-04-02T17:11:39;100082.00;;;7.30;75.13
19672;BME280;9983;51.114;13.788;2023-04-02T17:16:43;100089.44;;;7.45;75.87
19672;BME280;9983;51.114;13.788;2023-04-02T17:21:45;100097.03;;;7.59;74.75
19672;BME280;9983;51.114;13.788;2023-04-02T17:26:50;100098.56;;;7.72;74.24
19672;BME280;9983;51.114;13.788;2023-04-02T17:31:52;100105.59;;;7.73;74.07
19672;BME280;9983;51.114;13.788;2023-04-02T17:36:58;100106.72;;;7.80;74.68
19672;BME280;9983;51.114;13.788;2023-04-02T17:42:13;100108.69;;;7.58;74.63
19672;BME280;9983;51.114;13.788;2023-04-02T17:47:21;100104.47;;;7.46;76.05
19672;BME280;9983;51.114;13.788;2023-04-02T17:57:42;100118.94;;;7.34;77.61
19672;BME280;9983;51.114;13.788;2023-04-02T18:03:22;100129.47;;;7.45;76.04
19672;BME280;9983;51.114;13.788;2023-04-02T18:08:25;100131.97;;;7.37;77.02
19672;BME280;9983;51.114;13.788;2023-04-02T18:13:32;100130.84;;;7.30;76.83
19672;BME280;9983;51.114;13.788;2023-04-02T18:19:06;100141.78;;;7.17;77.40
19672;BME280;9983;51.114;13.788;2023-04-02T18:24:20;100154.41;;;7.15;81.22
19672;BME280;9983;51.114;13.788;2023-04-02T18:35:00;100157.91;;;7.16;79.94
19672;BME280;9983;51.114;13.788;2023-04-02T18:45:19;100173.06;;;7.15;81.55
19672;BME280;9983;51.114;13.788;2023-04-02T18:50:30;100178.28;;;7.17;81.93
19672;BME280;9983;51.114;13.788;2023-04-02T18:55:32;100182.97;;;7.04;83.41
19672;BME280;9983;51.114;13.788;2023-04-02T19:00:39;100186.13;;;7.28;82.00
19672;BME280;9983;51.114;13.788;2023-04-02T19:05:44;100199.88;;;7.14;83.60
19672;BME280;9983;51.114;13.788;2023-04-02T19:10:52;100199.69;;;7.06;84.38
19672;BME280;9983;51.114;13.788;2023-04-02T19:15:57;100215.47;;;7.28;82.50
19672;BME280;9983;51.114;13.788;2023-04-02T19:21:08;100215.47;;;7.28;82.69
19672;BME280;9983;51.114;13.788;2023-04-02T19:26:17;100218.69;;;7.22;82.27
19672;BME280;9983;51.114;13.788;2023-04-02T19:31:24;100224.31;;;7.19;82.66
19672;BME280;9983;51.114;13.788;2023-04-02T19:36:35;100232.06;;;6.92;84.04
19672;BME280;9983;51.114;13.788;2023-04-02T19:46:41;100238.41;;;7.00;84.46
19672;BME280;9983;51.114;13.788;2023-04-02T19:51:42;100231.78;;;6.95;84.44
19672;BME280;9983;51.114;13.788;2023-04-02T19:56:43;100236.78;;;7.09;83.36
19672;BME280;9983;51.114;13.788;2023-04-02T20:01:44;100247.69;;;7.06;84.58
19672;BME280;9983;51.114;13.788;2023-04-02T20:06:44;100244.66;;;6.90;83.99
19672;BME280;9983;51.114;13.788;2023-04-02T20:11:44;100246.81;;;7.26;83.72
19672;BME280;9983;51.114;13.788;2023-04-02T20:16:45;100251.44;;;6.94;84.29
19672;BME280;9983;51.114;13.788;2023-04-02T20:21:45;100255.44;;;7.09;82.83
19672;BME280;9983;51.114;13.788;2023-04-02T20:26:46;100259.06;;;7.08;83.34
19672;BME280;9983;51.114;13.788;2023-04-02T20:31:46;100267.03;;;7.38;81.45
19672;BME280;9983;51.114;13.788;2023-04-02T20:36:46;100266.53;;;7.14;82.63
19672;BME280;9983;51.114;13.788;2023-04-02T20:41:47;100272.53;;;7.06;84.35
19672;BME280;9983;51.114;13.788;2023-04-02T20:46:47;100288.84;;;7.13;82.16
19672;BME280;9983;51.114;13.788;2023-04-02T20:51:47;100288.47;;;6.97;81.83
19672;BME280;9983;51.114;13.788;2023-04-02T20:56:47;100292.13;;;6.96;80.87
19672;BME280;9983;51.114;13.788;2023-04-02T21:01:49;100298.63;;;7.03;78.93
19672;BME280;9983;51.114;13.788;2023-04-02T21:06:49;100303.94;;;6.61;79.98
19672;BME280;9983;51.114;13.788;2023-04-02T21:11:55;100304.09;;;6.80;77.66
19672;BME280;9983;51.114;13.788;2023-04-02T21:16:55;100307.03;;;6.57;77.59
19672;BME280;9983;51.114;13.788;2023-04-02T21:21:56;100308.84;;;6.56;77.03
19672;BME280;9983;51.114;13.788;2023-04-02T21:26:56;100307.53;;;6.71;77.46
19672;BME280;9983;51.114;13.788;2023-04-02T21:31:56;100315.63;;;6.60;76.66
19672;BME280;9983;51.114;13.788;2023-04-02T21:36:56;100313.19;;;6.78;76.53
19672;BME280;9983;51.114;13.788;2023-04-02T21:41:57;100316.66;;;6.69;75.35
19672;BME280;9983;51.114;13.788;2023-04-02T21:46:57;100316.06;;;6.65;75.17
19672;BME280;9983;51.114;13.788;2023-04-02T21:51:57;100325.22;;;6.52;76.08
19672;BME280;9983;51.114;13.788;2023-04-02T21:56:58;100328.53;;;6.44;77.03
19672;BME280;9983;51.114;13.788;2023-04-02T22:01:58;100329.84;;;6.38;75.67
19672;BME280;9983;51.114;13.788;2023-04-02T22:06:59;100332.81;;;6.56;75.34
19672;BME280;9983;51.114;13.788;2023-04-02T22:11:59;100343.28;;;6.05;76.44
19672;BME280;9983;51.114;13.788;2023-04-02T22:17:00;100349.38;;;6.28;75.21
19672;BME280;9983;51.114;13.788;2023-04-02T22:22:02;100358.41;;;6.04;76.27
19672;BME280;9983;51.114;13.788;2023-04-02T22:27:02;100352.94;;;6.17;74.34
19672;BME280;9983;51.114;13.788;2023-04-02T22:32:02;100360.03;;;6.28;73.96
19672;BME280;9983;51.114;13.788;2023-04-02T22:37:03;100368.94;;;6.49;73.97
19672;BME280;9983;51.114;13.788;2023-04-02T22:42:03;100371.63;;;6.38;73.33
19672;BME280;9983;51.114;13.788;2023-04-02T22:47:03;100371.25;;;6.11;73.33
19672;BME280;9983;51.114;13.788;2023-04-02T22:52:04;100380.44;;;6.06;72.38
19672;BME280;9983;51.114;13.788;2023-04-02T22:57:05;100383.81;;;6.08;72.25
19672;BME280;9983;51.114;13.788;2023-04-02T23:02:06;100390.75;;;5.89;71.43
19672;BME280;9983;51.114;13.788;2023-04-02T23:07:06;100397.81;;;6.22;70.14
19672;BME280;9983;51.114;13.788;2023-04-02T23:12:06;100402.69;;;5.83;70.46
19672;BME280;9983;51.114;13.788;2023-04-02T23:17:06;100408.75;;;5.96;68.74
19672;BME280;9983;51.114;13.788;2023-04-02T23:22:07;100411.63;;;5.71;68.70
19672;BME280;9983;51.114;13.788;2023-04-02T23:27:08;100419.16;;;5.99;68.59
19672;BME280;9983;51.114;13.788;2023-04-02T23:32:09;100414.56;;;5.68;69.98
19672;BME280;9983;51.114;13.788;2023-04-02T23:37:09;100416.50;;;5.66;69.48
19672;BME280;9983;51.114;13.788;2023-04-02T23:42:10;100422.28;;;5.71;70.05
19672;BME280;9983;51.114;13.788;2023-04-02T23:47:10;100415.75;;;5.53;70.26
19672;BME280;9983;51.114;13.788;2023-04-02T23:52:11;100419.91;;;5.11;71.59
19672;BME280;9983;51.114;13.788;2023-04-02T23:57:11;100413.03;;;5.19;72.22
